createdAt,value
2023-02-24T00:00:56.809Z,1008.25
2023-02-24T00:01:56.829Z,1008.28
2023-02-24T00:02:56.794Z,1008.30
2023-02-24T00:03:56.815Z,1008.31
2023-02-24T00:04:56.771Z,1008.29
2023-02-24T00:05:56.748Z,1008.28
2023-02-24T00:06:56.747Z,1008.25
2023-02-24T00:07:56.732Z,1008.27
2023-02-24T00:08:56.721Z,1008.22
2023-02-24T00:09:56.728Z,1008.18
2023-02-24T00:10:56.693Z,1008.21
2023-02-24T00:11:56.704Z,1008.18
2023-02-24T00:12:56.670Z,1008.18
2023-02-24T00:13:56.666Z,1008.21
2023-02-24T00:14:56.659Z,1008.18
2023-02-24T00:15:56.680Z,1008.20
2023-02-24T00:16:56.736Z,1008.17
2023-02-24T00:17:56.610Z,1008.20
2023-02-24T00:18:56.608Z,1008.20
2023-02-24T00:19:56.602Z,1008.17
2023-02-24T00:20:56.590Z,1008.18
2023-02-24T00:21:56.571Z,1008.12
2023-02-24T00:22:56.559Z,1008.11
2023-02-24T00:23:56.543Z,1008.13
2023-02-24T00:24:56.547Z,1008.16
2023-02-24T00:25:56.524Z,1008.15
2023-02-24T00:26:56.529Z,1008.12
2023-02-24T00:27:56.518Z,1008.06
2023-02-24T00:28:56.491Z,1008.10
2023-02-24T00:29:56.488Z,1008.13
2023-02-24T00:30:56.535Z,1008.07
2023-02-24T00:31:56.753Z,1008.13
2023-02-24T00:32:56.512Z,1008.16
2023-02-24T00:33:56.434Z,1008.19
2023-02-24T00:34:56.436Z,1008.16
2023-02-24T00:35:56.414Z,1008.08
2023-02-24T00:36:56.419Z,1008.11
2023-02-24T00:37:56.392Z,1008.08
2023-02-24T00:38:56.394Z,1008.08
2023-02-24T00:39:56.371Z,1008.04
2023-02-24T00:40:56.372Z,1008.09
2023-02-24T00:41:56.355Z,1008.06
2023-02-24T00:42:56.348Z,1008.04
2023-02-24T00:43:56.347Z,1008.03
2023-02-24T00:44:56.355Z,1008.05
2023-02-24T00:45:56.355Z,1008.08
2023-02-24T00:46:56.305Z,1008.06
2023-02-24T00:47:56.283Z,1008.04
2023-02-24T00:48:56.275Z,1008.02
2023-02-24T00:49:56.285Z,1007.99
2023-02-24T00:50:56.262Z,1007.99
2023-02-24T00:51:56.237Z,1008.02
2023-02-24T00:52:56.233Z,1007.95
2023-02-24T00:53:56.237Z,1007.93
2023-02-24T00:54:56.208Z,1007.88
2023-02-24T00:55:56.203Z,1007.89
2023-02-24T00:56:56.186Z,1007.90
2023-02-24T00:57:56.190Z,1007.92
2023-02-24T00:58:56.164Z,1007.83
2023-02-24T00:59:56.174Z,1007.90
2023-02-24T01:00:56.148Z,1007.89
2023-02-24T01:01:56.162Z,1007.86
2023-02-24T01:02:56.128Z,1007.82
2023-02-24T01:03:56.134Z,1007.86
2023-02-24T01:04:56.104Z,1007.79
2023-02-24T01:05:56.094Z,1007.77
2023-02-24T01:06:56.071Z,1007.80
2023-02-24T01:07:56.057Z,1007.71
2023-02-24T01:08:56.053Z,1007.68
2023-02-24T01:09:56.059Z,1007.67
2023-02-24T01:10:56.049Z,1007.66
2023-02-24T01:11:56.095Z,1007.63
2023-02-24T01:12:56.004Z,1007.60
2023-02-24T01:13:56.005Z,1007.64
2023-02-24T01:14:55.979Z,1007.59
2023-02-24T01:15:56.095Z,1007.62
2023-02-24T01:16:55.979Z,1007.70
2023-02-24T01:17:55.949Z,1007.67
2023-02-24T01:18:55.940Z,1007.70
2023-02-24T01:19:55.925Z,1007.67
2023-02-24T01:20:55.918Z,1007.65
2023-02-24T01:21:55.909Z,1007.52
2023-02-24T01:22:55.914Z,1007.57
2023-02-24T01:23:55.888Z,1007.48
2023-02-24T01:24:55.866Z,1007.51
2023-02-24T01:25:55.859Z,1007.47
2023-02-24T01:26:55.845Z,1007.44
2023-02-24T01:27:55.861Z,1007.41
2023-02-24T01:28:55.822Z,1007.40
2023-02-24T01:29:55.813Z,1007.34
2023-02-24T01:30:55.976Z,1007.34
2023-02-24T01:31:56.024Z,1007.36
2023-02-24T01:32:55.943Z,1007.35
2023-02-24T01:33:55.776Z,1007.31
2023-02-24T01:34:55.758Z,1007.31
2023-02-24T01:35:55.758Z,1007.34
2023-02-24T01:36:55.741Z,1007.33
2023-02-24T01:37:55.730Z,1007.30
2023-02-24T01:38:55.749Z,1007.28
2023-02-24T01:39:55.719Z,1007.25
2023-02-24T01:40:55.695Z,1007.27
2023-02-24T01:41:55.690Z,1007.27
2023-02-24T01:42:55.671Z,1007.23
2023-02-24T01:43:55.664Z,1007.17
2023-02-24T01:44:55.672Z,1007.21
2023-02-24T01:45:55.641Z,1007.16
2023-02-24T01:46:55.701Z,1007.13
2023-02-24T01:47:55.642Z,1007.09
2023-02-24T01:48:55.606Z,1006.99
2023-02-24T01:49:55.603Z,1007.05
2023-02-24T01:50:55.609Z,1007.02
2023-02-24T01:51:55.578Z,1006.95
2023-02-24T01:52:55.560Z,1007.01
2023-02-24T01:53:55.557Z,1006.95
2023-02-24T01:54:55.554Z,1006.96
2023-02-24T01:55:55.537Z,1006.95
2023-02-24T01:56:55.535Z,1006.91
2023-02-24T01:57:55.510Z,1006.91
2023-02-24T01:58:55.494Z,1006.95
2023-02-24T01:59:55.501Z,1006.95
2023-02-24T02:00:55.478Z,1006.95
2023-02-24T02:01:55.618Z,1006.84
2023-02-24T02:02:55.467Z,1006.86
2023-02-24T02:03:55.473Z,1006.84
2023-02-24T02:04:55.430Z,1006.87
2023-02-24T02:05:55.432Z,1006.86
2023-02-24T02:06:55.429Z,1006.83
2023-02-24T02:07:55.403Z,1006.79
2023-02-24T02:08:55.387Z,1006.78
2023-02-24T02:09:55.396Z,1006.76
2023-02-24T02:10:55.371Z,1006.72
2023-02-24T02:11:55.357Z,1006.74
2023-02-24T02:12:55.357Z,1006.67
2023-02-24T02:13:55.434Z,1006.68
2023-02-24T02:14:55.323Z,1006.65
2023-02-24T02:15:55.334Z,1006.62
2023-02-24T02:16:55.313Z,1006.63
2023-02-24T02:17:55.298Z,1006.61
2023-02-24T02:18:55.277Z,1006.65
2023-02-24T02:19:55.290Z,1006.61
2023-02-24T02:20:55.253Z,1006.61
2023-02-24T02:21:55.257Z,1006.62
2023-02-24T02:22:55.256Z,1006.55
2023-02-24T02:23:55.231Z,1006.60
2023-02-24T02:24:55.221Z,1006.56
2023-02-24T02:25:55.205Z,1006.50
2023-02-24T02:26:55.196Z,1006.48
2023-02-24T02:27:55.181Z,1006.44
2023-02-24T02:28:55.178Z,1006.39
2023-02-24T02:29:55.159Z,1006.37
2023-02-24T02:30:55.169Z,1006.32
2023-02-24T02:31:55.420Z,1006.27
2023-02-24T02:32:55.248Z,1006.34
2023-02-24T02:33:55.118Z,1006.28
2023-02-24T02:34:55.102Z,1006.34
2023-02-24T02:35:55.112Z,1006.32
2023-02-24T02:36:55.089Z,1006.34
2023-02-24T02:37:55.094Z,1006.23
2023-02-24T02:38:55.061Z,1006.25
2023-02-24T02:39:55.048Z,1006.30
2023-02-24T02:40:55.037Z,1006.22
2023-02-24T02:41:55.038Z,1006.25
2023-02-24T02:42:55.032Z,1006.25
2023-02-24T02:43:55.008Z,1006.27
2023-02-24T02:44:54.993Z,1006.21
2023-02-24T02:45:55.005Z,1006.27
2023-02-24T02:46:54.975Z,1006.24
2023-02-24T02:47:54.967Z,1006.20
2023-02-24T02:48:54.950Z,1006.24
2023-02-24T02:49:54.951Z,1006.19
2023-02-24T02:50:54.988Z,1006.21
2023-02-24T02:51:54.947Z,1006.19
2023-02-24T02:52:54.897Z,1006.15
2023-02-24T02:53:54.913Z,1006.16
2023-02-24T02:54:54.874Z,1006.09
2023-02-24T02:55:54.864Z,1006.16
2023-02-24T02:56:54.856Z,1006.14
2023-02-24T02:57:54.863Z,1006.15
2023-02-24T02:58:54.846Z,1006.17
2023-02-24T02:59:54.822Z,1006.14
2023-02-24T03:00:54.834Z,1006.12
2023-02-24T03:01:54.799Z,1006.08
2023-02-24T03:02:54.790Z,1006.13
2023-02-24T03:03:54.779Z,1006.09
2023-02-24T03:05:02.362Z,1006.01
2023-02-24T03:05:54.753Z,1006.03
2023-02-24T03:06:54.751Z,1006.02
2023-02-24T03:07:54.758Z,1006.01
2023-02-24T03:08:54.717Z,1005.96
2023-02-24T03:09:54.727Z,1005.99
2023-02-24T03:10:54.698Z,1005.94
2023-02-24T03:11:54.704Z,1005.96
2023-02-24T03:12:54.686Z,1005.94
2023-02-24T03:13:54.697Z,1005.91
2023-02-24T03:14:54.649Z,1005.87
2023-02-24T03:15:54.665Z,1005.90
2023-02-24T03:16:54.682Z,1005.85
2023-02-24T03:17:54.646Z,1005.87
2023-02-24T03:18:54.608Z,1005.89
2023-02-24T03:19:54.596Z,1005.85
2023-02-24T03:20:54.589Z,1005.79
2023-02-24T03:21:54.578Z,1005.82
2023-02-24T03:22:54.581Z,1005.81
2023-02-24T03:23:54.622Z,1005.84
2023-02-24T03:24:54.545Z,1005.76
2023-02-24T03:25:54.557Z,1005.80
2023-02-24T03:26:54.519Z,1005.76
2023-02-24T03:27:54.538Z,1005.74
2023-02-24T03:28:54.498Z,1005.73
2023-02-24T03:29:54.508Z,1005.72
2023-02-24T03:30:54.597Z,1005.75
2023-02-24T03:31:54.612Z,1005.74
2023-02-24T03:32:54.725Z,1005.69
2023-02-24T03:33:54.454Z,1005.75
2023-02-24T03:34:54.443Z,1005.67
2023-02-24T03:35:54.427Z,1005.65
2023-02-24T03:36:54.452Z,1005.69
2023-02-24T03:37:54.409Z,1005.61
2023-02-24T03:38:54.409Z,1005.58
2023-02-24T03:39:54.410Z,1005.57
2023-02-24T03:40:54.370Z,1005.55
2023-02-24T03:41:54.361Z,1005.56
2023-02-24T03:42:54.369Z,1005.56
2023-02-24T03:43:54.342Z,1005.54
2023-02-24T03:44:54.328Z,1005.49
2023-02-24T03:45:54.355Z,1005.48
2023-02-24T03:46:54.308Z,1005.49
2023-02-24T03:47:54.357Z,1005.45
2023-02-24T03:48:54.290Z,1005.46
2023-02-24T03:49:54.275Z,1005.52
2023-02-24T03:50:54.262Z,1005.58
2023-02-24T03:51:54.263Z,1005.48
2023-02-24T03:52:54.232Z,1005.53
2023-02-24T03:53:54.221Z,1005.50
2023-02-24T03:54:54.246Z,1005.51
2023-02-24T03:55:54.218Z,1005.46
2023-02-24T03:56:54.190Z,1005.44
2023-02-24T03:57:54.181Z,1005.46
2023-02-24T03:58:54.187Z,1005.48
2023-02-24T03:59:54.155Z,1005.47
2023-02-24T04:00:54.143Z,1005.44
2023-02-24T04:01:54.137Z,1005.43
2023-02-24T04:02:54.124Z,1005.43
2023-02-24T04:03:54.140Z,1005.42
2023-02-24T04:04:54.141Z,1005.39
2023-02-24T04:05:54.108Z,1005.44
2023-02-24T04:06:56.192Z,1005.44
2023-02-24T04:07:54.071Z,1005.50
2023-02-24T04:08:54.063Z,1005.43
2023-02-24T04:09:54.055Z,1005.42
2023-02-24T04:10:54.047Z,1005.46
2023-02-24T04:11:54.046Z,1005.46
2023-02-24T04:12:54.115Z,1005.44
2023-02-24T04:13:54.001Z,1005.43
2023-02-24T04:14:54.017Z,1005.44
2023-02-24T04:15:54.025Z,1005.36
2023-02-24T04:16:53.973Z,1005.38
2023-02-24T04:17:53.966Z,1005.37
2023-02-24T04:18:53.947Z,1005.35
2023-02-24T04:19:53.972Z,1005.33
2023-02-24T04:20:53.927Z,1005.32
2023-02-24T04:21:53.922Z,1005.34
2023-02-24T04:22:53.903Z,1005.43
2023-02-24T04:23:53.891Z,1005.39
2023-02-24T04:24:53.895Z,1005.33
2023-02-24T04:25:53.918Z,1005.32
2023-02-24T04:26:53.870Z,1005.32
2023-02-24T04:27:53.870Z,1005.33
2023-02-24T04:28:53.847Z,1005.32
2023-02-24T04:29:53.827Z,1005.33
2023-02-24T04:30:53.994Z,1005.34
2023-02-24T04:31:54.052Z,1005.30
2023-02-24T04:32:53.821Z,1005.27
2023-02-24T04:33:53.781Z,1005.27
2023-02-24T04:34:53.766Z,1005.27
2023-02-24T04:35:53.817Z,1005.21
2023-02-24T04:36:53.764Z,1005.21
2023-02-24T04:37:53.741Z,1005.24
2023-02-24T04:38:53.725Z,1005.11
2023-02-24T04:39:53.726Z,1005.14
2023-02-24T04:40:53.737Z,1005.16
2023-02-24T04:41:53.704Z,1005.14
2023-02-24T04:42:53.681Z,1005.12
2023-02-24T04:43:53.696Z,1005.12
2023-02-24T04:44:53.669Z,1005.09
2023-02-24T04:45:53.650Z,1005.12
2023-02-24T04:46:53.644Z,1005.07
2023-02-24T04:47:53.640Z,1005.09
2023-02-24T04:48:53.629Z,1005.05
2023-02-24T04:49:53.609Z,1005.04
2023-02-24T04:50:53.609Z,1005.01
2023-02-24T04:51:53.624Z,1005.01
2023-02-24T04:52:53.565Z,1004.90
2023-02-24T04:53:53.577Z,1004.93
2023-02-24T04:54:53.555Z,1004.87
2023-02-24T04:55:53.542Z,1004.87
2023-02-24T04:56:53.535Z,1004.80
2023-02-24T04:57:53.532Z,1004.83
2023-02-24T04:58:53.509Z,1004.81
2023-02-24T04:59:53.520Z,1004.80
2023-02-24T05:00:53.506Z,1004.77
2023-02-24T05:01:53.479Z,1004.74
2023-02-24T05:02:53.464Z,1004.65
2023-02-24T05:03:53.534Z,1004.65
2023-02-24T05:04:53.448Z,1004.60
2023-02-24T05:05:53.430Z,1004.55
2023-02-24T05:06:53.415Z,1004.50
2023-02-24T05:07:53.418Z,1004.53
2023-02-24T05:08:53.419Z,1004.48
2023-02-24T05:09:53.385Z,1004.48
2023-02-24T05:10:53.374Z,1004.48
2023-02-24T05:11:53.384Z,1004.43
2023-02-24T05:12:53.352Z,1004.42
2023-02-24T05:13:53.360Z,1004.36
2023-02-24T05:14:53.360Z,1004.46
2023-02-24T05:15:53.403Z,1004.38
2023-02-24T05:16:53.322Z,1004.41
2023-02-24T05:17:53.331Z,1004.37
2023-02-24T05:18:53.286Z,1004.34
2023-02-24T05:19:53.297Z,1004.35
2023-02-24T05:20:53.261Z,1004.26
2023-02-24T05:21:53.287Z,1004.31
2023-02-24T05:22:53.249Z,1004.25
2023-02-24T05:23:53.237Z,1004.27
2023-02-24T05:24:53.232Z,1004.22
2023-02-24T05:25:53.230Z,1004.17
2023-02-24T05:26:53.209Z,1004.13
2023-02-24T05:27:53.191Z,1004.16
2023-02-24T05:28:53.180Z,1004.15
2023-02-24T05:29:55.180Z,1004.04
2023-02-24T05:30:53.280Z,1004.08
2023-02-24T05:31:53.291Z,1004.07
2023-02-24T05:32:53.141Z,1004.02
2023-02-24T05:33:53.121Z,1004.05
2023-02-24T05:34:53.122Z,1004.02
2023-02-24T05:35:53.113Z,1004.01
2023-02-24T05:36:53.088Z,1003.97
2023-02-24T05:37:53.071Z,1003.97
2023-02-24T05:38:55.537Z,1003.95
2023-02-24T05:39:53.335Z,1003.94
2023-02-24T05:40:53.064Z,1003.93
2023-02-24T05:41:53.026Z,1003.94
2023-02-24T05:42:53.017Z,1003.86
2023-02-24T05:43:53.045Z,1003.86
2023-02-24T05:44:53.022Z,1003.84
2023-02-24T05:45:53.016Z,1003.84
2023-02-24T05:46:53.157Z,1003.74
2023-02-24T05:47:52.981Z,1003.71
2023-02-24T05:48:52.950Z,1003.66
2023-02-24T05:49:52.934Z,1003.66
2023-02-24T05:50:52.937Z,1003.63
2023-02-24T05:51:52.916Z,1003.64
2023-02-24T05:52:52.910Z,1003.66
2023-02-24T05:53:52.891Z,1003.61
2023-02-24T05:54:52.890Z,1003.60
2023-02-24T05:55:52.912Z,1003.53
2023-02-24T05:56:52.863Z,1003.54
2023-02-24T05:57:52.845Z,1003.51
2023-02-24T05:58:54.740Z,1003.56
2023-02-24T05:59:52.829Z,1003.47
2023-02-24T06:00:52.853Z,1003.52
2023-02-24T06:01:52.852Z,1003.53
2023-02-24T06:02:52.849Z,1003.47
2023-02-24T06:03:52.810Z,1003.48
2023-02-24T06:04:52.771Z,1003.45
2023-02-24T06:05:52.754Z,1003.43
2023-02-24T06:06:52.798Z,1003.46
2023-02-24T06:07:52.735Z,1003.43
2023-02-24T06:08:52.728Z,1003.39
2023-02-24T06:09:52.736Z,1003.40
2023-02-24T06:10:52.744Z,1003.36
2023-02-24T06:11:52.775Z,1003.30
2023-02-24T06:12:55.073Z,1003.39
2023-02-24T06:13:52.686Z,1003.40
2023-02-24T06:14:52.662Z,1003.31
2023-02-24T06:15:52.647Z,1003.25
2023-02-24T06:16:52.646Z,1003.24
2023-02-24T06:17:52.626Z,1003.20
2023-02-24T06:18:52.614Z,1003.22
2023-02-24T06:19:52.625Z,1003.26
2023-02-24T06:20:52.595Z,1003.20
2023-02-24T06:21:52.588Z,1003.20
2023-02-24T06:22:52.582Z,1003.19
2023-02-24T06:23:52.575Z,1003.17
2023-02-24T06:24:52.551Z,1003.10
2023-02-24T06:25:52.535Z,1003.15
2023-02-24T06:26:52.530Z,1003.14
2023-02-24T06:27:52.519Z,1003.12
2023-02-24T06:28:52.519Z,1003.16
2023-02-24T06:29:52.527Z,1003.17
2023-02-24T06:30:52.584Z,1003.15
2023-02-24T06:31:52.626Z,1003.16
2023-02-24T06:32:52.534Z,1003.07
2023-02-24T06:33:52.462Z,1003.10
2023-02-24T06:34:52.487Z,1003.10
2023-02-24T06:35:52.447Z,1003.01
2023-02-24T06:36:52.417Z,1003.07
2023-02-24T06:37:52.449Z,1003.04
2023-02-24T06:38:52.422Z,1003.00
2023-02-24T06:39:52.388Z,1002.97
2023-02-24T06:40:52.400Z,1003.00
2023-02-24T06:41:52.364Z,1002.96
2023-02-24T06:42:52.356Z,1002.95
2023-02-24T06:43:52.367Z,1003.01
2023-02-24T06:44:52.351Z,1003.02
2023-02-24T06:45:52.399Z,1003.02
2023-02-24T06:46:52.307Z,1003.00
2023-02-24T06:47:52.310Z,1003.01
2023-02-24T06:48:52.282Z,1003.01
2023-02-24T06:49:52.274Z,1003.00
2023-02-24T06:50:52.310Z,1002.99
2023-02-24T06:51:52.276Z,1002.97
2023-02-24T06:52:52.241Z,1003.05
2023-02-24T06:53:52.268Z,1003.01
2023-02-24T06:54:52.225Z,1003.04
2023-02-24T06:55:52.225Z,1003.04
2023-02-24T06:56:52.206Z,1002.98
2023-02-24T06:57:52.181Z,1003.07
2023-02-24T06:58:52.223Z,1002.97
2023-02-24T06:59:52.184Z,1002.94
2023-02-24T07:00:52.223Z,1002.97
2023-02-24T07:01:52.163Z,1002.96
2023-02-24T07:02:52.135Z,1002.97
2023-02-24T07:03:52.223Z,1002.94
2023-02-24T07:04:52.121Z,1002.91
2023-02-24T07:05:52.111Z,1002.85
2023-02-24T07:06:52.119Z,1002.90
2023-02-24T07:07:52.091Z,1002.86
2023-02-24T07:08:52.081Z,1002.86
2023-02-24T07:09:52.046Z,1002.75
2023-02-24T07:10:52.044Z,1002.80
2023-02-24T07:11:52.041Z,1002.72
2023-02-24T07:12:52.049Z,1002.77
2023-02-24T07:13:52.009Z,1002.67
2023-02-24T07:14:51.999Z,1002.69
2023-02-24T07:15:51.991Z,1002.63
2023-02-24T07:16:52.025Z,1002.61
2023-02-24T07:17:51.984Z,1002.64
2023-02-24T07:18:51.997Z,1002.62
2023-02-24T07:19:51.941Z,1002.58
2023-02-24T07:20:51.933Z,1002.58
2023-02-24T07:21:51.917Z,1002.56
2023-02-24T07:22:51.912Z,1002.57
2023-02-24T07:23:51.952Z,1002.54
2023-02-24T07:24:51.901Z,1002.53
2023-02-24T07:25:51.878Z,1002.52
2023-02-24T07:26:51.939Z,1002.50
2023-02-24T07:27:51.852Z,1002.41
2023-02-24T07:28:51.848Z,1002.42
2023-02-24T07:29:53.292Z,1002.42
2023-02-24T07:30:51.949Z,1002.38
2023-02-24T07:31:52.035Z,1002.48
2023-02-24T07:32:51.851Z,1002.44
2023-02-24T07:33:51.788Z,1002.37
2023-02-24T07:34:51.777Z,1002.39
2023-02-24T07:35:51.759Z,1002.42
2023-02-24T07:36:51.777Z,1002.38
2023-02-24T07:37:51.780Z,1002.29
2023-02-24T07:38:51.746Z,1002.33
2023-02-24T07:39:51.769Z,1002.36
2023-02-24T07:40:51.709Z,1002.36
2023-02-24T07:41:51.728Z,1002.32
2023-02-24T07:42:51.717Z,1002.34
2023-02-24T07:43:51.715Z,1002.30
2023-02-24T07:44:51.745Z,1002.25
2023-02-24T07:45:51.736Z,1002.27
2023-02-24T07:46:51.663Z,1002.34
2023-02-24T07:47:51.662Z,1002.24
2023-02-24T07:48:51.615Z,1002.30
2023-02-24T07:49:51.603Z,1002.29
2023-02-24T07:50:51.621Z,1002.29
2023-02-24T07:51:51.580Z,1002.21
2023-02-24T07:52:51.601Z,1002.18
2023-02-24T07:53:52.354Z,1002.18
2023-02-24T07:54:51.564Z,1002.19
2023-02-24T07:55:51.570Z,1002.13
2023-02-24T07:56:51.524Z,1002.13
2023-02-24T07:57:51.555Z,1002.16
2023-02-24T07:58:51.530Z,1002.11
2023-02-24T07:59:51.514Z,1002.13
2023-02-24T08:00:51.482Z,1002.18
2023-02-24T08:01:51.482Z,1002.07
2023-02-24T08:02:51.606Z,1002.02
2023-02-24T08:03:51.459Z,1002.06
2023-02-24T08:04:51.648Z,1002.03
2023-02-24T08:05:51.479Z,1002.04
2023-02-24T08:06:51.413Z,1002.05
2023-02-24T08:07:51.421Z,1001.99
2023-02-24T08:08:51.425Z,1002.01
2023-02-24T08:09:51.390Z,1001.93
2023-02-24T08:10:51.374Z,1001.95
2023-02-24T08:11:51.387Z,1001.95
2023-02-24T08:12:51.376Z,1001.99
2023-02-24T08:13:51.331Z,1001.84
2023-02-24T08:14:51.616Z,1001.91
2023-02-24T08:15:51.335Z,1001.87
2023-02-24T08:16:51.307Z,1001.85
2023-02-24T08:17:51.328Z,1001.83
2023-02-24T08:18:51.283Z,1001.79
2023-02-24T08:19:51.274Z,1001.75
2023-02-24T08:20:51.271Z,1001.84
2023-02-24T08:21:51.245Z,1001.77
2023-02-24T08:22:51.242Z,1001.76
2023-02-24T08:23:51.224Z,1001.78
2023-02-24T08:24:51.222Z,1001.77
2023-02-24T08:25:51.209Z,1001.67
2023-02-24T08:26:51.200Z,1001.73
2023-02-24T08:28:05.166Z,1001.69
2023-02-24T08:28:52.173Z,1001.63
2023-02-24T08:29:51.160Z,1001.64
2023-02-24T08:30:51.309Z,1001.60
2023-02-24T08:31:51.266Z,1001.60
2023-02-24T08:32:51.175Z,1001.58
2023-02-24T08:33:51.137Z,1001.60
2023-02-24T08:34:51.107Z,1001.58
2023-02-24T08:35:51.108Z,1001.46
2023-02-24T08:36:51.084Z,1001.58
2023-02-24T08:37:51.108Z,1001.56
2023-02-24T08:38:51.061Z,1001.42
2023-02-24T08:39:51.051Z,1001.46
2023-02-24T08:40:51.047Z,1001.45
2023-02-24T08:41:51.025Z,1001.46
2023-02-24T08:42:51.014Z,1001.38
2023-02-24T08:43:51.024Z,1001.35
2023-02-24T08:44:51.000Z,1001.42
2023-02-24T08:45:50.996Z,1001.40
2023-02-24T08:46:51.072Z,1001.38
2023-02-24T08:47:50.957Z,1001.41
2023-02-24T08:48:50.955Z,1001.45
2023-02-24T08:49:50.968Z,1001.41
2023-02-24T08:50:50.928Z,1001.36
2023-02-24T08:51:50.915Z,1001.32
2023-02-24T08:52:50.927Z,1001.40
2023-02-24T08:53:50.900Z,1001.31
2023-02-24T08:54:50.907Z,1001.27
2023-02-24T08:55:50.897Z,1001.24
2023-02-24T08:56:50.894Z,1001.32
2023-02-24T08:57:53.418Z,1001.32
2023-02-24T08:58:50.845Z,1001.32
2023-02-24T08:59:50.861Z,1001.24
2023-02-24T09:00:50.871Z,1001.24
2023-02-24T09:02:02.736Z,1001.20
2023-02-24T09:02:51.808Z,1001.23
2023-02-24T09:03:50.785Z,1001.27
2023-02-24T09:04:50.779Z,1001.30
2023-02-24T09:05:58.352Z,1001.24
2023-02-24T09:06:53.780Z,1001.14
2023-02-24T09:07:50.752Z,1001.11
2023-02-24T09:08:50.767Z,1001.21
2023-02-24T09:09:50.740Z,1001.10
2023-02-24T09:10:50.722Z,1001.04
2023-02-24T09:11:50.715Z,1001.00
2023-02-24T09:12:50.702Z,1001.08
2023-02-24T09:13:50.698Z,1001.06
2023-02-24T09:14:50.729Z,1000.98
2023-02-24T09:15:50.691Z,1001.01
2023-02-24T09:16:50.648Z,1000.99
2023-02-24T09:17:50.645Z,1000.93
2023-02-24T09:18:50.653Z,1000.94
2023-02-24T09:19:50.607Z,1000.97
2023-02-24T09:20:50.609Z,1000.86
2023-02-24T09:21:50.590Z,1000.90
2023-02-24T09:22:50.583Z,1000.90
2023-02-24T09:23:50.589Z,1000.85
2023-02-24T09:24:50.558Z,1000.82
2023-02-24T09:25:51.312Z,1000.80
2023-02-24T09:26:50.531Z,1000.85
2023-02-24T09:27:50.523Z,1000.81
2023-02-24T09:28:50.560Z,1000.80
2023-02-24T09:29:50.517Z,1000.77
2023-02-24T09:30:50.516Z,1000.74
2023-02-24T09:31:50.775Z,1000.79
2023-02-24T09:32:50.705Z,1000.80
2023-02-24T09:33:50.491Z,1000.66
2023-02-24T09:34:50.445Z,1000.63
2023-02-24T09:35:50.450Z,1000.65
2023-02-24T09:36:50.435Z,1000.61
2023-02-24T09:37:50.410Z,1000.60
2023-02-24T09:38:50.400Z,1000.52
2023-02-24T09:39:50.405Z,1000.58
2023-02-24T09:40:50.377Z,1000.54
2023-02-24T09:41:50.363Z,1000.53
2023-02-24T09:42:50.363Z,1000.52
2023-02-24T09:43:50.338Z,1000.46
2023-02-24T09:44:50.327Z,1000.47
2023-02-24T09:45:50.478Z,1000.49
2023-02-24T09:46:50.362Z,1000.34
2023-02-24T09:47:50.315Z,1000.44
2023-02-24T09:48:50.291Z,1000.41
2023-02-24T09:49:50.312Z,1000.41
2023-02-24T09:51:02.586Z,1000.38
2023-02-24T09:51:51.247Z,1000.35
2023-02-24T09:52:52.177Z,1000.35
2023-02-24T09:53:50.227Z,1000.28
2023-02-24T09:54:50.212Z,1000.37
2023-02-24T09:55:50.213Z,1000.35
2023-02-24T09:56:50.200Z,1000.35
2023-02-24T09:57:50.182Z,1000.29
2023-02-24T09:58:50.165Z,1000.37
2023-02-24T09:59:50.164Z,1000.31
2023-02-24T10:00:50.221Z,1000.31
2023-02-24T10:01:50.147Z,1000.26
2023-02-24T10:02:50.124Z,1000.24
2023-02-24T10:03:50.139Z,1000.19
2023-02-24T10:04:50.102Z,1000.19
2023-02-24T10:05:50.093Z,1000.24
2023-02-24T10:06:50.114Z,1000.22
2023-02-24T10:07:50.071Z,1000.13
2023-02-24T10:08:50.064Z,1000.14
2023-02-24T10:09:50.055Z,1000.12
2023-02-24T10:10:50.038Z,1000.11
2023-02-24T10:11:50.040Z,1000.15
2023-02-24T10:12:50.014Z,1000.03
2023-02-24T10:13:50.071Z,999.97
2023-02-24T10:14:51.443Z,1000.05
2023-02-24T10:15:50.155Z,999.99
2023-02-24T10:16:51.007Z,1000.01
2023-02-24T10:17:49.974Z,999.93
2023-02-24T10:18:49.947Z,999.94
2023-02-24T10:19:49.959Z,999.91
2023-02-24T10:20:49.966Z,999.98
2023-02-24T10:21:49.992Z,999.91
2023-02-24T10:22:49.929Z,999.92
2023-02-24T10:23:54.871Z,999.81
2023-02-24T10:24:49.904Z,999.84
2023-02-24T10:25:49.887Z,999.83
2023-02-24T10:27:00.116Z,999.80
2023-02-24T10:27:50.864Z,999.79
2023-02-24T10:28:49.837Z,999.82
2023-02-24T10:29:49.829Z,999.86
2023-02-24T10:30:49.950Z,999.79
2023-02-24T10:31:50.014Z,999.74
2023-02-24T10:32:49.869Z,999.85
2023-02-24T10:33:49.790Z,999.74
2023-02-24T10:34:49.796Z,999.81
2023-02-24T10:35:49.798Z,999.76
2023-02-24T10:36:49.750Z,999.68
2023-02-24T10:37:49.754Z,999.80
2023-02-24T10:38:49.733Z,999.62
2023-02-24T10:39:51.896Z,999.61
2023-02-24T10:40:49.700Z,999.59
2023-02-24T10:41:49.779Z,999.60
2023-02-24T10:42:49.710Z,999.57
2023-02-24T10:43:49.735Z,999.60
2023-02-24T10:45:01.199Z,999.51
2023-02-24T10:45:50.701Z,999.52
2023-02-24T10:46:49.775Z,999.51
2023-02-24T10:47:49.651Z,999.45
2023-02-24T10:48:49.639Z,999.50
2023-02-24T10:49:49.629Z,999.49
2023-02-24T10:50:55.969Z,999.45
2023-02-24T10:51:50.603Z,999.44
2023-02-24T10:52:49.574Z,999.51
2023-02-24T10:53:49.596Z,999.37
2023-02-24T10:54:49.575Z,999.43
2023-02-24T10:55:49.540Z,999.33
2023-02-24T10:56:49.526Z,999.41
2023-02-24T10:57:58.500Z,999.40
2023-02-24T10:58:50.537Z,999.40
2023-02-24T10:59:49.558Z,999.38
2023-02-24T11:00:49.483Z,999.37
2023-02-24T11:01:49.643Z,999.32
2023-02-24T11:02:49.497Z,999.32
2023-02-24T11:03:49.454Z,999.27
2023-02-24T11:04:49.472Z,999.28
2023-02-24T11:05:49.426Z,999.25
2023-02-24T11:06:49.419Z,999.25
2023-02-24T11:07:49.423Z,999.19
2023-02-24T11:08:49.389Z,999.19
2023-02-24T11:09:49.382Z,999.18
2023-02-24T11:10:49.376Z,999.19
2023-02-24T11:11:49.375Z,999.12
2023-02-24T11:12:53.567Z,999.12
2023-02-24T11:13:49.345Z,999.15
2023-02-24T11:14:49.327Z,999.08
2023-02-24T11:15:49.358Z,999.01
2023-02-24T11:16:49.300Z,999.03
2023-02-24T11:17:49.359Z,998.89
2023-02-24T11:18:49.273Z,998.87
2023-02-24T11:19:49.314Z,998.95
2023-02-24T11:20:50.114Z,998.89
2023-02-24T11:21:49.250Z,998.81
2023-02-24T11:22:49.250Z,998.82
2023-02-24T11:23:49.243Z,998.80
2023-02-24T11:24:49.210Z,998.73
2023-02-24T11:25:49.205Z,998.69
2023-02-24T11:26:49.189Z,998.71
2023-02-24T11:27:49.188Z,998.73
2023-02-24T11:28:49.178Z,998.73
2023-02-24T11:29:49.180Z,998.65
2023-02-24T11:30:49.286Z,998.65
2023-02-24T11:31:49.320Z,998.61
2023-02-24T11:32:49.183Z,998.62
2023-02-24T11:33:49.114Z,998.54
2023-02-24T11:34:49.103Z,998.60
2023-02-24T11:35:49.108Z,998.53
2023-02-24T11:36:49.087Z,998.54
2023-02-24T11:37:49.067Z,998.50
2023-02-24T11:38:49.218Z,998.52
2023-02-24T11:39:49.082Z,998.44
2023-02-24T11:40:49.051Z,998.43
2023-02-24T11:41:49.045Z,998.50
2023-02-24T11:42:49.024Z,998.44
2023-02-24T11:43:49.016Z,998.44
2023-02-24T11:44:48.992Z,998.48
2023-02-24T11:45:48.992Z,998.36
2023-02-24T11:46:48.983Z,998.38
2023-02-24T11:47:48.974Z,998.41
2023-02-24T11:48:49.001Z,998.36
2023-02-24T11:49:48.950Z,998.31
2023-02-24T11:50:48.935Z,998.28
2023-02-24T11:51:48.939Z,998.29
2023-02-24T11:52:48.939Z,998.38
2023-02-24T11:53:48.900Z,998.34
2023-02-24T11:54:48.905Z,998.42
2023-02-24T11:55:48.892Z,998.40
2023-02-24T11:56:48.877Z,998.36
2023-02-24T11:57:48.856Z,998.38
2023-02-24T11:58:48.882Z,998.35
2023-02-24T11:59:48.827Z,998.33
2023-02-24T12:00:48.811Z,998.25
2023-02-24T12:01:48.816Z,998.28
2023-02-24T12:02:48.959Z,998.14
2023-02-24T12:03:48.799Z,998.08
2023-02-24T12:04:48.769Z,998.20
2023-02-24T12:05:48.851Z,998.19
2023-02-24T12:06:48.746Z,998.24
2023-02-24T12:07:48.759Z,998.21
2023-02-24T12:08:48.738Z,998.20
2023-02-24T12:09:48.734Z,998.13